sensor_id;sensor_type;location;lat;lon;timestamp;pressure;altitude;pressure_sealevel;temperature;humidity
71770;BME280;66386;52.122;5.420;2023-04-27T00:01:48;102253.81;;;2.30;80.75
71770;BME280;66386;52.122;5.420;2023-04-27T00:04:15;102256.31;;;2.29;80.84
71770;BME280;66386;52.122;5.420;2023-04-27T00:06:42;102267.25;;;2.26;80.91
71770;BME280;66386;52.122;5.420;2023-04-27T00:09:08;102272.16;;;2.18;80.95
71770;BME280;66386;52.122;5.420;2023-04-27T00:11:34;102265.34;;;2.16;81.25
71770;BME280;66386;52.122;5.420;2023-04-27T00:14:01;102270.41;;;2.16;81.32
71770;BME280;66386;52.122;5.420;2023-04-27T00:16:27;102270.31;;;2.11;81.13
71770;BME280;66386;52.122;5.420;2023-04-27T00:18:54;102271.94;;;2.07;81.28
71770;BME280;66386;52.122;5.420;2023-04-27T00:21:21;102274.34;;;2.03;81.18
71770;BME280;66386;52.122;5.420;2023-04-27T00:23:47;102271.78;;;2.01;81.45
71770;BME280;66386;52.122;5.420;2023-04-27T00:26:14;102272.56;;;1.97;81.37
71770;BME280;66386;52.122;5.420;2023-04-27T00:28:41;102278.41;;;1.93;81.41
71770;BME280;66386;52.122;5.420;2023-04-27T00:31:07;102270.69;;;1.88;81.55
71770;BME280;66386;52.122;5.420;2023-04-27T00:33:34;102274.00;;;1.86;81.38
71770;BME280;66386;52.122;5.420;2023-04-27T00:36:01;102263.88;;;1.86;81.58
71770;BME280;66386;52.122;5.420;2023-04-27T00:38:28;102268.03;;;1.84;81.63
71770;BME280;66386;52.122;5.420;2023-04-27T00:41:05;102262.03;;;1.80;81.74
71770;BME280;66386;52.122;5.420;2023-04-27T00:43:40;102265.28;;;1.74;81.78
71770;BME280;66386;52.122;5.420;2023-04-27T00:46:07;102265.22;;;1.71;81.88
71770;BME280;66386;52.122;5.420;2023-04-27T00:48:34;102267.59;;;1.64;82.03
71770;BME280;66386;52.122;5.420;2023-04-27T00:51:01;102267.50;;;1.61;82.18
71770;BME280;66386;52.122;5.420;2023-04-27T00:53:27;102264.91;;;1.57;82.26
71770;BME280;66386;52.122;5.420;2023-04-27T00:55:54;102275.81;;;1.53;82.30
71770;BME280;66386;52.122;5.420;2023-04-27T00:58:23;102273.19;;;1.52;82.31
71770;BME280;66386;52.122;5.420;2023-04-27T01:00:49;102267.25;;;1.50;82.34
71770;BME280;66386;52.122;5.420;2023-04-27T01:03:16;102272.31;;;1.50;82.39
71770;BME280;66386;52.122;5.420;2023-04-27T01:05:43;102269.69;;;1.45;82.51
71770;BME280;66386;52.122;5.420;2023-04-27T01:08:09;102261.25;;;1.45;82.30
71770;BME280;66386;52.122;5.420;2023-04-27T01:10:36;102266.31;;;1.45;82.50
71770;BME280;66386;52.122;5.420;2023-04-27T01:13:03;102257.78;;;1.43;82.57
71770;BME280;66386;52.122;5.420;2023-04-27T01:15:29;102256.84;;;1.37;82.46
71770;BME280;66386;52.122;5.420;2023-04-27T01:17:59;102251.63;;;1.33;82.63
71770;BME280;66386;52.122;5.420;2023-04-27T01:20:29;102254.06;;;1.28;82.73
71770;BME280;66386;52.122;5.420;2023-04-27T01:22:58;102254.88;;;1.26;82.65
71770;BME280;66386;52.122;5.420;2023-04-27T01:25:24;102254.00;;;1.25;82.80
71770;BME280;66386;52.122;5.420;2023-04-27T01:27:51;102256.47;;;1.22;82.59
71770;BME280;66386;52.122;5.420;2023-04-27T01:30:18;102265.63;;;1.17;82.81
71770;BME280;66386;52.122;5.420;2023-04-27T01:32:45;102274.84;;;1.15;82.82
71770;BME280;66386;52.122;5.420;2023-04-27T01:35:11;102266.38;;;1.13;82.89
71770;BME280;66386;52.122;5.420;2023-04-27T01:37:38;102268.06;;;1.14;82.97
71770;BME280;66386;52.122;5.420;2023-04-27T01:40:05;102268.06;;;1.14;82.95
71770;BME280;66386;52.122;5.420;2023-04-27T01:42:32;102258.72;;;1.11;83.07
71770;BME280;66386;52.122;5.420;2023-04-27T01:44:59;102260.31;;;1.08;83.10
71770;BME280;66386;52.122;5.420;2023-04-27T01:47:26;102254.34;;;1.04;83.12
71770;BME280;66386;52.122;5.420;2023-04-27T01:49:52;102252.56;;;1.01;83.11
71770;BME280;66386;52.122;5.420;2023-04-27T01:52:19;102238.13;;;0.97;83.28
71770;BME280;66386;52.122;5.420;2023-04-27T01:54:45;102243.94;;;0.95;83.22
71770;BME280;66386;52.122;5.420;2023-04-27T01:57:12;102240.53;;;0.93;83.53
71770;BME280;66386;52.122;5.420;2023-04-27T01:59:39;102241.31;;;0.90;83.37
71770;BME280;66386;52.122;5.420;2023-04-27T02:02:06;102240.38;;;0.86;83.33
71770;BME280;66386;52.122;5.420;2023-04-27T02:04:32;102239.44;;;0.83;83.42
71770;BME280;66386;52.122;5.420;2023-04-27T02:07:02;102246.09;;;0.79;83.57
71770;BME280;66386;52.122;5.420;2023-04-27T02:09:28;102249.34;;;0.75;83.61
71770;BME280;66386;52.122;5.420;2023-04-27T02:11:55;102244.22;;;0.72;83.60
71770;BME280;66386;52.122;5.420;2023-04-27T02:14:21;102250.97;;;0.72;83.67
71770;BME280;66386;52.122;5.420;2023-04-27T02:16:48;102253.50;;;0.72;83.74
71770;BME280;66386;52.122;5.420;2023-04-27T02:19:14;102259.28;;;0.67;83.78
71770;BME280;66386;52.122;5.420;2023-04-27T02:21:41;102257.53;;;0.65;84.06
71770;BME280;66386;52.122;5.420;2023-04-27T02:24:08;102249.94;;;0.65;83.84
71770;BME280;66386;52.122;5.420;2023-04-27T02:26:35;102244.78;;;0.62;83.92
71770;BME280;66386;52.122;5.420;2023-04-27T02:29:01;102248.09;;;0.59;84.05
71770;BME280;66386;52.122;5.420;2023-04-27T02:31:29;102242.94;;;0.56;83.92
71770;BME280;66386;52.122;5.420;2023-04-27T02:33:56;102247.16;;;0.56;83.95
71770;BME280;66386;52.122;5.420;2023-04-27T02:36:22;102246.25;;;0.54;84.05
71770;BME280;66386;52.122;5.420;2023-04-27T02:38:49;102241.06;;;0.49;84.21
71770;BME280;66386;52.122;5.420;2023-04-27T02:41:15;102237.53;;;0.44;84.37
71770;BME280;66386;52.122;5.420;2023-04-27T02:43:42;102233.31;;;0.43;84.42
71770;BME280;66386;52.122;5.420;2023-04-27T02:46:08;102234.09;;;0.40;84.28
71770;BME280;66386;52.122;5.420;2023-04-27T02:48:34;102228.13;;;0.38;84.46
71770;BME280;66386;52.122;5.420;2023-04-27T02:51:04;102229.72;;;0.34;84.46
71770;BME280;66386;52.122;5.420;2023-04-27T02:53:31;102230.44;;;0.30;84.40
71770;BME280;66386;52.122;5.420;2023-04-27T02:55:57;102226.06;;;0.25;84.48
71770;BME280;66386;52.122;5.420;2023-04-27T02:58:24;102227.72;;;0.24;84.60
71770;BME280;66386;52.122;5.420;2023-04-27T03:00:55;102221.78;;;0.22;84.82
71770;BME280;66386;52.122;5.420;2023-04-27T03:03:22;102224.22;;;0.19;84.90
71770;BME280;66386;52.122;5.420;2023-04-27T03:05:49;102227.56;;;0.18;84.81
71770;BME280;66386;52.122;5.420;2023-04-27T03:08:16;102226.75;;;0.19;84.95
71770;BME280;66386;52.122;5.420;2023-04-27T03:10:42;102225.84;;;0.17;84.79
71770;BME280;66386;52.122;5.420;2023-04-27T03:13:08;102235.06;;;0.15;84.92
71770;BME280;66386;52.122;5.420;2023-04-27T03:15:35;102231.63;;;0.13;84.78
71770;BME280;66386;52.122;5.420;2023-04-27T03:18:01;102244.22;;;0.11;84.98
71770;BME280;66386;52.122;5.420;2023-04-27T03:20:28;102243.31;;;0.09;85.01
71770;BME280;66386;52.122;5.420;2023-04-27T03:22:54;102243.25;;;0.06;85.09
71770;BME280;66386;52.122;5.420;2023-04-27T03:25:20;102246.53;;;0.04;85.03
71770;BME280;66386;52.122;5.420;2023-04-27T03:27:47;102244.81;;;0.03;85.13
71770;BME280;66386;52.122;5.420;2023-04-27T03:30:14;102247.34;;;0.03;85.22
71770;BME280;66386;52.122;5.420;2023-04-27T03:32:40;102245.47;;;-0.03;85.17
71770;BME280;66386;52.122;5.420;2023-04-27T03:35:07;102242.94;;;-0.03;85.24
71770;BME280;66386;52.122;5.420;2023-04-27T03:37:34;102236.22;;;-0.04;85.29
71770;BME280;66386;52.122;5.420;2023-04-27T03:40:01;102242.91;;;-0.05;85.02
71770;BME280;66386;52.122;5.420;2023-04-27T03:42:27;102238.69;;;-0.06;85.25
71770;BME280;66386;52.122;5.420;2023-04-27T03:44:54;102244.53;;;-0.07;85.39
71770;BME280;66386;52.122;5.420;2023-04-27T03:47:21;102240.25;;;-0.09;85.46
71770;BME280;66386;52.122;5.420;2023-04-27T03:49:49;102246.97;;;-0.10;85.30
71770;BME280;66386;52.122;5.420;2023-04-27T03:52:15;102247.78;;;-0.11;85.55
71770;BME280;66386;52.122;5.420;2023-04-27T03:54:41;102241.78;;;-0.14;85.58
71770;BME280;66386;52.122;5.420;2023-04-27T03:57:08;102244.28;;;-0.16;85.46
71770;BME280;66386;52.122;5.420;2023-04-27T03:59:34;102243.41;;;-0.16;85.54
71770;BME280;66386;52.122;5.420;2023-04-27T04:02:01;102247.56;;;-0.19;85.70
71770;BME280;66386;52.122;5.420;2023-04-27T04:04:29;102237.47;;;-0.19;85.67
71770;BME280;66386;52.122;5.420;2023-04-27T04:06:56;102241.59;;;-0.21;85.65
71770;BME280;66386;52.122;5.420;2023-04-27T04:09:22;102244.06;;;-0.22;85.67
71770;BME280;66386;52.122;5.420;2023-04-27T04:11:50;102249.97;;;-0.23;85.80
71770;BME280;66386;52.122;5.420;2023-04-27T04:14:17;102248.19;;;-0.26;85.83
71770;BME280;66386;52.122;5.420;2023-04-27T04:16:43;102250.72;;;-0.26;85.60
71770;BME280;66386;52.122;5.420;2023-04-27T04:19:10;102249.00;;;-0.27;85.94
71770;BME280;66386;52.122;5.420;2023-04-27T04:21:36;102250.66;;;-0.27;85.93
71770;BME280;66386;52.122;5.420;2023-04-27T04:24:03;102250.66;;;-0.27;86.06
71770;BME280;66386;52.122;5.420;2023-04-27T04:26:29;102259.06;;;-0.28;86.08
71770;BME280;66386;52.122;5.420;2023-04-27T04:28:56;102258.19;;;-0.29;86.16
71770;BME280;66386;52.122;5.420;2023-04-27T04:31:22;102257.44;;;-0.26;86.28
71770;BME280;66386;52.122;5.420;2023-04-27T04:33:49;102265.91;;;-0.24;86.11
71770;BME280;66386;52.122;5.420;2023-04-27T04:36:16;102263.41;;;-0.24;86.12
71770;BME280;66386;52.122;5.420;2023-04-27T04:38:43;102270.22;;;-0.22;86.17
71770;BME280;66386;52.122;5.420;2023-04-27T04:41:10;102266.84;;;-0.21;86.16
71770;BME280;66386;52.122;5.420;2023-04-27T04:43:36;102278.69;;;-0.20;85.92
71770;BME280;66386;52.122;5.420;2023-04-27T04:46:03;102277.09;;;-0.17;86.11
71770;BME280;66386;52.122;5.420;2023-04-27T04:48:29;102276.25;;;-0.16;86.13
71770;BME280;66386;52.122;5.420;2023-04-27T04:50:56;102274.59;;;-0.16;86.05
71770;BME280;66386;52.122;5.420;2023-04-27T04:53:22;102273.78;;;-0.15;86.00
71770;BME280;66386;52.122;5.420;2023-04-27T04:55:49;102283.13;;;-0.12;86.02
71770;BME280;66386;52.122;5.420;2023-04-27T04:58:15;102282.38;;;-0.10;86.33
71770;BME280;66386;52.122;5.420;2023-04-27T05:00:41;102279.94;;;-0.07;86.19
71770;BME280;66386;52.122;5.420;2023-04-27T05:03:08;102273.25;;;-0.05;86.30
71770;BME280;66386;52.122;5.420;2023-04-27T05:05:35;102275.94;;;0.00;86.41
71770;BME280;66386;52.122;5.420;2023-04-27T05:08:01;102274.34;;;0.04;86.20
71770;BME280;66386;52.122;5.420;2023-04-27T05:10:28;102272.75;;;0.07;86.26
71770;BME280;66386;52.122;5.420;2023-04-27T05:12:54;102275.44;;;0.12;86.27
71770;BME280;66386;52.122;5.420;2023-04-27T05:15:21;102281.47;;;0.17;86.50
71770;BME280;66386;52.122;5.420;2023-04-27T05:17:47;102276.53;;;0.22;86.69
71770;BME280;66386;52.122;5.420;2023-04-27T05:20:14;102272.44;;;0.25;86.47
71770;BME280;66386;52.122;5.420;2023-04-27T05:22:41;102274.25;;;0.29;86.52
71770;BME280;66386;52.122;5.420;2023-04-27T05:25:08;102275.22;;;0.34;86.45
71770;BME280;66386;52.122;5.420;2023-04-27T05:27:35;102272.06;;;0.42;86.15
71770;BME280;66386;52.122;5.420;2023-04-27T05:30:01;102275.59;;;0.47;86.18
71770;BME280;66386;52.122;5.420;2023-04-27T05:32:28;102284.94;;;0.51;86.21
71770;BME280;66386;52.122;5.420;2023-04-27T05:34:55;102276.66;;;0.55;86.44
71770;BME280;66386;52.122;5.420;2023-04-27T05:37:21;102272.63;;;0.62;86.58
71770;BME280;66386;52.122;5.420;2023-04-27T05:39:48;102285.47;;;0.69;86.53
71770;BME280;66386;52.122;5.420;2023-04-27T05:42:14;102287.28;;;0.74;86.51
71770;BME280;66386;52.122;5.420;2023-04-27T05:44:41;102286.66;;;0.82;86.60
71770;BME280;66386;52.122;5.420;2023-04-27T05:47:08;102290.97;;;0.85;86.51
71770;BME280;66386;52.122;5.420;2023-04-27T05:49:34;102293.63;;;0.90;86.85
71770;BME280;66386;52.122;5.420;2023-04-27T05:52:01;102285.38;;;0.97;86.96
71770;BME280;66386;52.122;5.420;2023-04-27T05:54:27;102287.25;;;1.04;86.82
71770;BME280;66386;52.122;5.420;2023-04-27T05:56:54;102287.41;;;1.10;86.78
71770;BME280;66386;52.122;5.420;2023-04-27T05:59:20;102291.03;;;1.20;86.67
71770;BME280;66386;52.122;5.420;2023-04-27T06:01:47;102287.84;;;1.27;86.97
71770;BME280;66386;52.122;5.420;2023-04-27T06:04:13;102284.56;;;1.33;86.93
71770;BME280;66386;52.122;5.420;2023-04-27T06:06:40;102288.94;;;1.38;87.02
71770;BME280;66386;52.122;5.420;2023-04-27T06:09:07;102292.53;;;1.47;87.12
71770;BME280;66386;52.122;5.420;2023-04-27T06:11:34;102286.84;;;1.57;87.08
71770;BME280;66386;52.122;5.420;2023-04-27T06:14:00;102286.22;;;1.66;87.10
71770;BME280;66386;52.122;5.420;2023-04-27T06:16:26;102299.06;;;1.73;87.29
71770;BME280;66386;52.122;5.420;2023-04-27T06:18:53;102290.72;;;1.78;87.01
71770;BME280;66386;52.122;5.420;2023-04-27T06:21:20;102281.56;;;1.84;87.02
71770;BME280;66386;52.122;5.420;2023-04-27T06:23:46;102281.03;;;1.98;86.71
71770;BME280;66386;52.122;5.420;2023-04-27T06:26:13;102283.97;;;2.16;86.72
71770;BME280;66386;52.122;5.420;2023-04-27T06:28:39;102282.84;;;3.38;86.62
71770;BME280;66386;52.122;5.420;2023-04-27T06:31:06;102284.75;;;4.83;82.60
71770;BME280;66386;52.122;5.420;2023-04-27T06:33:33;102283.78;;;5.64;79.15
71770;BME280;66386;52.122;5.420;2023-04-27T06:36:00;102276.03;;;5.51;77.96
71770;BME280;66386;52.122;5.420;2023-04-27T06:38:27;102280.09;;;5.28;77.76
71770;BME280;66386;52.122;5.420;2023-04-27T06:40:53;102285.03;;;5.09;77.93
71770;BME280;66386;52.122;5.420;2023-04-27T06:43:20;102284.69;;;4.77;78.55
71770;BME280;66386;52.122;5.420;2023-04-27T06:45:47;102282.72;;;4.52;79.65
71770;BME280;66386;52.122;5.420;2023-04-27T06:48:13;102279.38;;;4.55;80.75
71770;BME280;66386;52.122;5.420;2023-04-27T06:50:40;102280.28;;;4.59;80.55
71770;BME280;66386;52.122;5.420;2023-04-27T06:53:06;102279.69;;;4.84;80.81
71770;BME280;66386;52.122;5.420;2023-04-27T06:55:33;102282.47;;;5.07;80.12
71770;BME280;66386;52.122;5.420;2023-04-27T06:58:01;102280.19;;;5.41;79.24
71770;BME280;66386;52.122;5.420;2023-04-27T07:00:28;102282.91;;;5.62;76.43
71770;BME280;66386;52.122;5.420;2023-04-27T07:02:54;102276.19;;;5.77;75.76
71770;BME280;66386;52.122;5.420;2023-04-27T07:05:21;102277.16;;;5.93;74.98
71770;BME280;66386;52.122;5.420;2023-04-27T07:07:48;102286.63;;;6.15;73.65
71770;BME280;66386;52.122;5.420;2023-04-27T07:10:14;102279.09;;;6.39;74.53
71770;BME280;66386;52.122;5.420;2023-04-27T07:12:41;102268.13;;;6.65;72.35
71770;BME280;66386;52.122;5.420;2023-04-27T07:15:08;102275.81;;;6.82;70.71
71770;BME280;66386;52.122;5.420;2023-04-27T07:17:34;102284.38;;;6.99;70.70
71770;BME280;66386;52.122;5.420;2023-04-27T07:20:01;102284.41;;;7.24;69.77
71770;BME280;66386;52.122;5.420;2023-04-27T07:22:29;102282.69;;;7.43;67.72
71770;BME280;66386;52.122;5.420;2023-04-27T07:24:56;102290.34;;;7.48;66.36
71770;BME280;66386;52.122;5.420;2023-04-27T07:27:22;102284.38;;;7.58;66.23
71770;BME280;66386;52.122;5.420;2023-04-27T07:29:49;102289.44;;;7.86;66.39
71770;BME280;66386;52.122;5.420;2023-04-27T07:32:16;102290.22;;;8.11;66.05
71770;BME280;66386;52.122;5.420;2023-04-27T07:34:42;102279.97;;;8.25;62.84
71770;BME280;66386;52.122;5.420;2023-04-27T07:37:19;102277.38;;;8.27;62.88
71770;BME280;66386;52.122;5.420;2023-04-27T07:39:45;102276.47;;;8.42;62.67
71770;BME280;66386;52.122;5.420;2023-04-27T07:42:12;102273.75;;;8.72;61.99
71770;BME280;66386;52.122;5.420;2023-04-27T07:44:39;102277.94;;;8.87;60.66
71770;BME280;66386;52.122;5.420;2023-04-27T07:47:06;102277.91;;;8.94;59.60
71770;BME280;66386;52.122;5.420;2023-04-27T07:49:32;102277.88;;;8.98;59.81
71770;BME280;66386;52.122;5.420;2023-04-27T07:52:00;102278.63;;;9.11;58.66
71770;BME280;66386;52.122;5.420;2023-04-27T07:54:27;102285.38;;;9.24;57.92
71770;BME280;66386;52.122;5.420;2023-04-27T07:56:53;102287.03;;;9.29;56.46
71770;BME280;66386;52.122;5.420;2023-04-27T07:59:20;102289.53;;;9.38;58.64
71770;BME280;66386;52.122;5.420;2023-04-27T08:01:46;102277.41;;;9.55;57.07
71770;BME280;66386;52.122;5.420;2023-04-27T08:04:13;102274.66;;;9.72;58.30
71770;BME280;66386;52.122;5.420;2023-04-27T08:06:41;102280.44;;;9.91;56.41
71770;BME280;66386;52.122;5.420;2023-04-27T08:09:08;102277.13;;;9.83;55.94
71770;BME280;66386;52.122;5.420;2023-04-27T08:11:35;102277.22;;;9.75;54.77
71770;BME280;66386;52.122;5.420;2023-04-27T08:14:01;102286.66;;;9.72;54.62
71770;BME280;66386;52.122;5.420;2023-04-27T08:16:28;102282.19;;;9.89;55.35
71770;BME280;66386;52.122;5.420;2023-04-27T08:18:54;102286.28;;;10.07;53.21
71770;BME280;66386;52.122;5.420;2023-04-27T08:21:23;102283.47;;;10.27;54.49
71770;BME280;66386;52.122;5.420;2023-04-27T08:23:49;102281.53;;;10.48;53.76
71770;BME280;66386;52.122;5.420;2023-04-27T08:26:16;102283.09;;;10.58;51.40
71770;BME280;66386;52.122;5.420;2023-04-27T08:28:42;102283.03;;;10.63;53.35
71770;BME280;66386;52.122;5.420;2023-04-27T08:31:09;102282.88;;;10.75;52.57
71770;BME280;66386;52.122;5.420;2023-04-27T08:33:35;102275.84;;;10.88;51.55
71770;BME280;66386;52.122;5.420;2023-04-27T08:36:02;102280.97;;;10.88;50.85
71770;BME280;66386;52.122;5.420;2023-04-27T08:38:28;102280.22;;;10.81;51.73
71770;BME280;66386;52.122;5.420;2023-04-27T08:40:55;102270.69;;;10.88;49.96
71770;BME280;66386;52.122;5.420;2023-04-27T08:43:34;102272.28;;;10.97;50.95
71770;BME280;66386;52.122;5.420;2023-04-27T08:46:01;102264.41;;;11.06;48.80
71770;BME280;66386;52.122;5.420;2023-04-27T08:48:28;102278.06;;;11.11;49.09
71770;BME280;66386;52.122;5.420;2023-04-27T08:50:55;102267.34;;;11.34;51.72
71770;BME280;66386;52.122;5.420;2023-04-27T08:53:22;102260.94;;;11.59;49.04
71770;BME280;66386;52.122;5.420;2023-04-27T08:55:49;102271.88;;;11.72;47.83
71770;BME280;66386;52.122;5.420;2023-04-27T08:58:16;102269.13;;;11.79;46.86
71770;BME280;66386;52.122;5.420;2023-04-27T09:00:43;102273.13;;;11.96;49.27
71770;BME280;66386;52.122;5.420;2023-04-27T09:03:21;102266.69;;;12.18;48.62
71770;BME280;66386;52.122;5.420;2023-04-27T09:05:49;102267.44;;;12.25;45.92
71770;BME280;66386;52.122;5.420;2023-04-27T09:08:47;102271.22;;;12.48;47.27
71770;BME280;66386;52.122;5.420;2023-04-27T09:11:26;102273.22;;;12.74;45.74
71770;BME280;66386;52.122;5.420;2023-04-27T09:13:53;102264.19;;;12.92;44.01
71770;BME280;66386;52.122;5.420;2023-04-27T09:16:26;102271.91;;;12.93;44.79
71770;BME280;66386;52.122;5.420;2023-04-27T09:18:55;102257.88;;;13.05;46.49
71770;BME280;66386;52.122;5.420;2023-04-27T09:21:24;102264.97;;;13.32;45.33
71770;BME280;66386;52.122;5.420;2023-04-27T09:23:52;102256.34;;;13.31;41.73
71770;BME280;66386;52.122;5.420;2023-04-27T09:26:20;102254.59;;;13.33;42.95
71770;BME280;66386;52.122;5.420;2023-04-27T09:28:49;102257.94;;;13.38;42.92
71770;BME280;66386;52.122;5.420;2023-04-27T09:31:17;102259.31;;;13.52;41.87
71770;BME280;66386;52.122;5.420;2023-04-27T09:33:44;102253.97;;;13.58;41.71
71770;BME280;66386;52.122;5.420;2023-04-27T09:36:11;102241.69;;;13.66;41.78
71770;BME280;66386;52.122;5.420;2023-04-27T09:38:37;102249.97;;;13.79;42.19
71770;BME280;66386;52.122;5.420;2023-04-27T09:41:04;102253.75;;;13.97;41.63
71770;BME280;66386;52.122;5.420;2023-04-27T09:43:33;102247.94;;;13.90;40.95
71770;BME280;66386;52.122;5.420;2023-04-27T09:45:59;102250.66;;;13.86;41.24
71770;BME280;66386;52.122;5.420;2023-04-27T09:48:26;102245.59;;;13.81;41.85
71770;BME280;66386;52.122;5.420;2023-04-27T09:50:53;102254.00;;;13.56;41.89
71770;BME280;66386;52.122;5.420;2023-04-27T09:53:33;102249.34;;;13.38;40.72
71770;BME280;66386;52.122;5.420;2023-04-27T10:01:38;102248.03;;;13.54;40.85
71770;BME280;66386;52.122;5.420;2023-04-27T10:04:12;102238.97;;;13.39;41.57
71770;BME280;66386;52.122;5.420;2023-04-27T10:07:02;102237.00;;;13.15;41.96
71770;BME280;66386;52.122;5.420;2023-04-27T10:09:40;102240.91;;;13.30;42.26
71770;BME280;66386;52.122;5.420;2023-04-27T10:12:32;102235.88;;;13.25;42.48
71770;BME280;66386;52.122;5.420;2023-04-27T10:15:09;102241.59;;;13.38;43.21
71770;BME280;66386;52.122;5.420;2023-04-27T10:17:36;102236.66;;;13.27;41.33
71770;BME280;66386;52.122;5.420;2023-04-27T10:20:06;102242.53;;;13.34;41.63
71770;BME280;66386;52.122;5.420;2023-04-27T10:22:45;102245.53;;;13.17;42.49
71770;BME280;66386;52.122;5.420;2023-04-27T10:27:42;102241.75;;;13.65;42.45
71770;BME280;66386;52.122;5.420;2023-04-27T10:30:10;102243.28;;;13.72;41.53
71770;BME280;66386;52.122;5.420;2023-04-27T10:32:49;102235.81;;;13.61;40.82
71770;BME280;66386;52.122;5.420;2023-04-27T10:35:16;102238.16;;;13.70;40.73
71770;BME280;66386;52.122;5.420;2023-04-27T10:37:44;102230.13;;;13.79;41.26
71770;BME280;66386;52.122;5.420;2023-04-27T10:40:11;102231.03;;;13.78;41.02
71770;BME280;66386;52.122;5.420;2023-04-27T10:42:46;102233.72;;;13.74;41.19
71770;BME280;66386;52.122;5.420;2023-04-27T10:45:25;102242.97;;;13.83;42.20
71770;BME280;66386;52.122;5.420;2023-04-27T10:47:58;102238.75;;;13.80;40.76
71770;BME280;66386;52.122;5.420;2023-04-27T10:50:26;102228.13;;;13.89;39.98
71770;BME280;66386;52.122;5.420;2023-04-27T10:52:52;102228.06;;;13.92;40.57
71770;BME280;66386;52.122;5.420;2023-04-27T10:55:21;102229.63;;;13.98;39.76
71770;BME280;66386;52.122;5.420;2023-04-27T10:57:49;102222.50;;;14.06;40.04
71770;BME280;66386;52.122;5.420;2023-04-27T11:00:31;102222.59;;;14.02;41.33
71770;BME280;66386;52.122;5.420;2023-04-27T11:03:11;102212.59;;;14.19;41.72
71770;BME280;66386;52.122;5.420;2023-04-27T11:05:40;102214.50;;;14.42;38.70
71770;BME280;66386;52.122;5.420;2023-04-27T11:08:10;102208.94;;;14.26;38.21
71770;BME280;66386;52.122;5.420;2023-04-27T11:10:38;102211.06;;;14.42;39.44
71770;BME280;66386;52.122;5.420;2023-04-27T11:13:10;102203.13;;;14.76;40.32
71770;BME280;66386;52.122;5.420;2023-04-27T11:15:48;102200.88;;;14.65;38.66
71770;BME280;66386;52.122;5.420;2023-04-27T11:18:17;102199.88;;;14.70;39.71
71770;BME280;66386;52.122;5.420;2023-04-27T11:20:46;102190.13;;;14.78;39.44
71770;BME280;66386;52.122;5.420;2023-04-27T11:23:30;102191.91;;;14.76;39.00
71770;BME280;66386;52.122;5.420;2023-04-27T11:26:16;102180.78;;;14.74;39.76
71770;BME280;66386;52.122;5.420;2023-04-27T11:28:44;102183.63;;;14.66;39.08
71770;BME280;66386;52.122;5.420;2023-04-27T11:31:11;102182.09;;;14.59;39.72
71770;BME280;66386;52.122;5.420;2023-04-27T11:33:38;102184.91;;;14.79;38.22
71770;BME280;66386;52.122;5.420;2023-04-27T11:36:18;102183.94;;;14.82;37.71
71770;BME280;66386;52.122;5.420;2023-04-27T11:38:45;102181.84;;;14.93;38.16
71770;BME280;66386;52.122;5.420;2023-04-27T11:41:12;102173.34;;;14.90;35.69
71770;BME280;66386;52.122;5.420;2023-04-27T11:43:42;102173.25;;;14.93;38.15
71770;BME280;66386;52.122;5.420;2023-04-27T11:46:11;102171.50;;;14.93;36.46
71770;BME280;66386;52.122;5.420;2023-04-27T11:48:38;102171.75;;;14.59;37.56
71770;BME280;66386;52.122;5.420;2023-04-27T11:51:08;102176.03;;;14.31;38.13
71770;BME280;66386;52.122;5.420;2023-04-27T11:53:39;102180.59;;;14.23;38.48
71770;BME280;66386;52.122;5.420;2023-04-27T11:56:09;102169.38;;;14.24;38.27
71770;BME280;66386;52.122;5.420;2023-04-27T11:58:38;102169.34;;;14.53;38.22
71770;BME280;66386;52.122;5.420;2023-04-27T12:01:06;102161.66;;;14.78;38.01
71770;BME280;66386;52.122;5.420;2023-04-27T12:03:32;102170.81;;;14.88;37.14
71770;BME280;66386;52.122;5.420;2023-04-27T12:06:00;102161.47;;;14.84;38.17
71770;BME280;66386;52.122;5.420;2023-04-27T12:08:46;102158.31;;;14.99;37.97
71770;BME280;66386;52.122;5.420;2023-04-27T12:11:13;102162.78;;;14.96;37.76
71770;BME280;66386;52.122;5.420;2023-04-27T12:13:39;102159.69;;;15.10;37.47
71770;BME280;66386;52.122;5.420;2023-04-27T12:16:06;102157.09;;;15.10;35.04
71770;BME280;66386;52.122;5.420;2023-04-27T12:18:32;102155.59;;;15.04;38.10
71770;BME280;66386;52.122;5.420;2023-04-27T12:20:59;102161.19;;;15.17;36.79
71770;BME280;66386;52.122;5.420;2023-04-27T12:23:28;102154.88;;;15.24;37.38
71770;BME280;66386;52.122;5.420;2023-04-27T12:25:55;102159.41;;;15.19;36.76
71770;BME280;66386;52.122;5.420;2023-04-27T12:28:21;102153.63;;;15.11;36.64
71770;BME280;66386;52.122;5.420;2023-04-27T12:30:48;102143.28;;;15.34;37.69
71770;BME280;66386;52.122;5.420;2023-04-27T12:33:15;102136.84;;;15.46;36.97
71770;BME280;66386;52.122;5.420;2023-04-27T12:35:42;102145.16;;;15.54;36.02
71770;BME280;66386;52.122;5.420;2023-04-27T12:38:09;102139.63;;;15.40;38.74
71770;BME280;66386;52.122;5.420;2023-04-27T12:40:35;102132.88;;;15.36;37.27
71770;BME280;66386;52.122;5.420;2023-04-27T12:43:01;102132.09;;;15.34;36.52
71770;BME280;66386;52.122;5.420;2023-04-27T12:45:28;102117.72;;;15.25;35.14
71770;BME280;66386;52.122;5.420;2023-04-27T12:47:54;102122.03;;;15.26;35.29
71770;BME280;66386;52.122;5.420;2023-04-27T12:50:30;102125.69;;;15.21;35.39
71770;BME280;66386;52.122;5.420;2023-04-27T12:52:57;102136.75;;;15.24;34.89
71770;BME280;66386;52.122;5.420;2023-04-27T12:55:24;102129.22;;;15.18;35.36
71770;BME280;66386;52.122;5.420;2023-04-27T12:57:59;102126.19;;;15.30;36.28
71770;BME280;66386;52.122;5.420;2023-04-27T13:00:26;102122.56;;;15.34;35.11
71770;BME280;66386;52.122;5.420;2023-04-27T13:02:54;102126.91;;;15.34;37.09
71770;BME280;66386;52.122;5.420;2023-04-27T13:05:22;102125.06;;;15.38;37.97
71770;BME280;66386;52.122;5.420;2023-04-27T13:07:49;102116.44;;;15.37;36.32